sensor_id;sensor_type;location;lat;lon;timestamp;pressure;altitude;pressure_sealevel;temperature;humidity
26112;BME280;13829;48.990;8.346;2023-02-25T00:02:08;99443.13;;;8.60;66.11
26112;BME280;13829;48.990;8.346;2023-02-25T00:04:40;99452.75;;;8.59;65.01
26112;BME280;13829;48.990;8.346;2023-02-25T00:07:08;99445.75;;;8.58;65.02
26112;BME280;13829;48.990;8.346;2023-02-25T00:09:44;99447.50;;;8.53;65.20
26112;BME280;13829;48.990;8.346;2023-02-25T00:12:21;99452.72;;;8.56;65.59
26112;BME280;13829;48.990;8.346;2023-02-25T00:15:02;99459.72;;;8.63;64.34
26112;BME280;13829;48.990;8.346;2023-02-25T00:17:50;99449.25;;;8.60;65.56
26112;BME280;13829;48.990;8.346;2023-02-25T00:20:32;99455.38;;;8.52;65.35
26112;BME280;13829;48.990;8.346;2023-02-25T00:23:15;99452.75;;;8.58;65.65
26112;BME280;13829;48.990;8.346;2023-02-25T00:25:42;99451.00;;;8.33;65.80
26112;BME280;13829;48.990;8.346;2023-02-25T00:28:17;99450.09;;;8.41;66.63
26112;BME280;13829;48.990;8.346;2023-02-25T00:31:07;99442.28;;;8.31;66.74
26112;BME280;13829;48.990;8.346;2023-02-25T00:33:44;99447.50;;;8.41;65.61
26112;BME280;13829;48.990;8.346;2023-02-25T00:36:24;99447.50;;;8.41;65.82
26112;BME280;13829;48.990;8.346;2023-02-25T00:39:09;99443.16;;;8.27;66.59
26112;BME280;13829;48.990;8.346;2023-02-25T00:41:46;99449.25;;;8.42;66.18
26112;BME280;13829;48.990;8.346;2023-02-25T00:44:14;99449.25;;;8.45;66.75
26112;BME280;13829;48.990;8.346;2023-02-25T00:46:41;99450.13;;;8.39;66.25
26112;BME280;13829;48.990;8.346;2023-02-25T00:49:08;99429.19;;;8.31;66.85
26112;BME280;13829;48.990;8.346;2023-02-25T00:51:37;99426.56;;;8.38;66.82
26112;BME280;13829;48.990;8.346;2023-02-25T00:54:04;99439.66;;;8.31;67.22
26112;BME280;13829;48.990;8.346;2023-02-25T00:56:33;99441.38;;;8.37;67.75
26112;BME280;13829;48.990;8.346;2023-02-25T00:59:00;99443.16;;;8.33;67.63
26112;BME280;13829;48.990;8.346;2023-02-25T01:01:31;99442.25;;;8.41;66.88
26112;BME280;13829;48.990;8.346;2023-02-25T01:04:03;99451.03;;;8.47;67.09
26112;BME280;13829;48.990;8.346;2023-02-25T01:06:31;99455.34;;;8.39;67.19
26112;BME280;13829;48.990;8.346;2023-02-25T01:09:04;99451.88;;;8.39;67.55
26112;BME280;13829;48.990;8.346;2023-02-25T01:11:34;99458.84;;;8.44;67.78
26112;BME280;13829;48.990;8.346;2023-02-25T01:14:06;99465.84;;;8.36;67.33
26112;BME280;13829;48.990;8.346;2023-02-25T01:16:41;99465.88;;;8.28;67.60
26112;BME280;13829;48.990;8.346;2023-02-25T01:19:16;99467.59;;;8.31;67.76
26112;BME280;13829;48.990;8.346;2023-02-25T01:21:48;99474.59;;;8.46;67.88
26112;BME280;13829;48.990;8.346;2023-02-25T01:24:20;99482.44;;;8.33;68.02
26112;BME280;13829;48.990;8.346;2023-02-25T01:26:51;99475.44;;;8.36;68.70
26112;BME280;13829;48.990;8.346;2023-02-25T01:29:23;99475.44;;;8.43;68.53
26112;BME280;13829;48.990;8.346;2023-02-25T01:31:52;99480.69;;;8.36;68.66
26112;BME280;13829;48.990;8.346;2023-02-25T01:34:19;99483.31;;;8.36;68.61
26112;BME280;13829;48.990;8.346;2023-02-25T01:36:49;99478.09;;;8.46;67.98
26112;BME280;13829;48.990;8.346;2023-02-25T01:39:20;99477.19;;;8.44;67.89
26112;BME280;13829;48.990;8.346;2023-02-25T01:41:49;99476.31;;;8.38;68.45
26112;BME280;13829;48.990;8.346;2023-02-25T01:44:19;99482.44;;;8.43;68.50
26112;BME280;13829;48.990;8.346;2023-02-25T01:46:48;99484.16;;;8.41;67.09
26112;BME280;13829;48.990;8.346;2023-02-25T01:49:22;99487.69;;;8.30;67.19
26112;BME280;13829;48.990;8.346;2023-02-25T01:51:59;99487.69;;;8.27;66.33
26112;BME280;13829;48.990;8.346;2023-02-25T01:54:31;99483.31;;;8.06;67.05
26112;BME280;13829;48.990;8.346;2023-02-25T01:56:59;99491.19;;;8.11;67.74
26112;BME280;13829;48.990;8.346;2023-02-25T01:59:28;99494.66;;;8.10;66.44
26112;BME280;13829;48.990;8.346;2023-02-25T02:01:56;99488.53;;;8.15;66.48
26112;BME280;13829;48.990;8.346;2023-02-25T02:04:25;99499.03;;;8.12;66.47
26112;BME280;13829;48.990;8.346;2023-02-25T02:06:54;99496.41;;;8.08;66.61
26112;BME280;13829;48.990;8.346;2023-02-25T02:09:26;99494.69;;;8.08;66.93
26112;BME280;13829;48.990;8.346;2023-02-25T02:12:00;99501.66;;;8.11;66.06
26112;BME280;13829;48.990;8.346;2023-02-25T02:14:33;99497.28;;;8.13;66.02
26112;BME280;13829;48.990;8.346;2023-02-25T02:17:19;99500.78;;;8.20;65.71
26112;BME280;13829;48.990;8.346;2023-02-25T02:20:08;99502.53;;;8.16;65.58
26112;BME280;13829;48.990;8.346;2023-02-25T02:22:54;99505.13;;;8.04;64.94
26112;BME280;13829;48.990;8.346;2023-02-25T02:26:02;99500.75;;;8.03;65.13
26112;BME280;13829;48.990;8.346;2023-02-25T02:29:28;99509.50;;;7.98;63.72
26112;BME280;13829;48.990;8.346;2023-02-25T02:32:15;99511.19;;;7.68;63.40
26112;BME280;13829;48.990;8.346;2023-02-25T02:34:56;99509.41;;;7.52;62.88
26112;BME280;13829;48.990;8.346;2023-02-25T02:37:39;99515.47;;;7.42;62.34
26112;BME280;13829;48.990;8.346;2023-02-25T02:40:28;99515.44;;;7.35;63.37
26112;BME280;13829;48.990;8.346;2023-02-25T02:43:20;99524.09;;;7.19;63.76
26112;BME280;13829;48.990;8.346;2023-02-25T02:46:02;99523.28;;;7.32;63.71
26112;BME280;13829;48.990;8.346;2023-02-25T02:48:40;99538.94;;;7.18;63.84
26112;BME280;13829;48.990;8.346;2023-02-25T02:51:16;99529.25;;;7.07;65.30
26112;BME280;13829;48.990;8.346;2023-02-25T02:53:50;99536.22;;;7.01;65.67
26112;BME280;13829;48.990;8.346;2023-02-25T02:56:23;99548.38;;;6.93;66.14
26112;BME280;13829;48.990;8.346;2023-02-25T02:58:56;99552.84;;;7.16;66.36
26112;BME280;13829;48.990;8.346;2023-02-25T03:01:28;99549.34;;;7.11;66.34
26112;BME280;13829;48.990;8.346;2023-02-25T03:04:02;99552.75;;;6.94;66.04
26112;BME280;13829;48.990;8.346;2023-02-25T03:06:37;99548.34;;;6.85;65.96
26112;BME280;13829;48.990;8.346;2023-02-25T03:09:13;99560.38;;;6.63;66.20
26112;BME280;13829;48.990;8.346;2023-02-25T03:11:41;99553.44;;;6.65;66.08
26112;BME280;13829;48.990;8.346;2023-02-25T03:14:10;99555.22;;;6.73;66.34
26112;BME280;13829;48.990;8.346;2023-02-25T03:16:43;99557.69;;;6.57;66.66
26112;BME280;13829;48.990;8.346;2023-02-25T03:19:17;99554.22;;;6.57;66.30
26112;BME280;13829;48.990;8.346;2023-02-25T03:21:51;99558.59;;;6.58;65.40
26112;BME280;13829;48.990;8.346;2023-02-25T03:24:25;99552.47;;;6.54;65.33
26112;BME280;13829;48.990;8.346;2023-02-25T03:26:57;99556.84;;;6.57;66.09
26112;BME280;13829;48.990;8.346;2023-02-25T03:29:26;99558.59;;;6.58;66.24
26112;BME280;13829;48.990;8.346;2023-02-25T03:32:00;99555.03;;;6.51;66.17
26112;BME280;13829;48.990;8.346;2023-02-25T03:34:35;99543.59;;;6.33;66.16
26112;BME280;13829;48.990;8.346;2023-02-25T03:37:10;99552.31;;;6.37;66.08
26112;BME280;13829;48.990;8.346;2023-02-25T03:39:42;99543.50;;;6.21;66.73
26112;BME280;13829;48.990;8.346;2023-02-25T03:42:17;99554.78;;;6.17;67.53
26112;BME280;13829;48.990;8.346;2023-02-25T03:44:50;99553.81;;;6.10;68.34
26112;BME280;13829;48.990;8.346;2023-02-25T03:47:22;99558.03;;;5.97;69.68
26112;BME280;13829;48.990;8.346;2023-02-25T03:49:58;99565.69;;;5.82;69.73
26112;BME280;13829;48.990;8.346;2023-02-25T03:52:30;99563.03;;;5.76;70.35
26112;BME280;13829;48.990;8.346;2023-02-25T03:54:57;99565.66;;;5.79;70.80
26112;BME280;13829;48.990;8.346;2023-02-25T03:57:35;99567.31;;;5.70;71.20
26112;BME280;13829;48.990;8.346;2023-02-25T04:00:05;99577.81;;;5.75;71.51
26112;BME280;13829;48.990;8.346;2023-02-25T04:02:41;99574.38;;;5.78;71.50
26112;BME280;13829;48.990;8.346;2023-02-25T04:05:09;99586.56;;;5.80;71.28
26112;BME280;13829;48.990;8.346;2023-02-25T04:07:37;99599.66;;;5.85;70.84
26112;BME280;13829;48.990;8.346;2023-02-25T04:10:07;99600.41;;;5.75;71.04
26112;BME280;13829;48.990;8.346;2023-02-25T04:12:35;99598.63;;;5.72;72.22
26112;BME280;13829;48.990;8.346;2023-02-25T04:15:04;99587.34;;;5.75;72.75
26112;BME280;13829;48.990;8.346;2023-02-25T04:17:32;99596.03;;;5.74;72.97
26112;BME280;13829;48.990;8.346;2023-02-25T04:20:01;99588.34;;;5.86;72.37
26112;BME280;13829;48.990;8.346;2023-02-25T04:22:32;99585.78;;;5.89;71.76
26112;BME280;13829;48.990;8.346;2023-02-25T04:25:01;99589.19;;;5.83;71.40
26112;BME280;13829;48.990;8.346;2023-02-25T04:27:30;99583.31;;;6.00;70.29
26112;BME280;13829;48.990;8.346;2023-02-25T04:29:58;99584.13;;;5.96;70.81
26112;BME280;13829;48.990;8.346;2023-02-25T04:32:24;99591.28;;;6.14;69.32
26112;BME280;13829;48.990;8.346;2023-02-25T04:34:51;99586.91;;;6.10;69.16
26112;BME280;13829;48.990;8.346;2023-02-25T04:37:18;99582.72;;;6.27;68.06
26112;BME280;13829;48.990;8.346;2023-02-25T04:39:46;99582.78;;;6.38;67.96
26112;BME280;13829;48.990;8.346;2023-02-25T04:42:13;99579.25;;;6.31;67.67
26112;BME280;13829;48.990;8.346;2023-02-25T04:44:40;99587.22;;;6.48;66.14
26112;BME280;13829;48.990;8.346;2023-02-25T04:47:07;99589.84;;;6.47;66.42
26112;BME280;13829;48.990;8.346;2023-02-25T04:49:43;99593.47;;;6.67;64.71
26112;BME280;13829;48.990;8.346;2023-02-25T04:52:16;99595.31;;;6.78;65.26
26112;BME280;13829;48.990;8.346;2023-02-25T04:54:51;99593.47;;;6.64;64.80
26112;BME280;13829;48.990;8.346;2023-02-25T04:57:19;99596.19;;;6.78;65.32
26112;BME280;13829;48.990;8.346;2023-02-25T04:59:50;99594.34;;;6.65;65.12
26112;BME280;13829;48.990;8.346;2023-02-25T05:02:22;99594.31;;;6.59;64.39
26112;BME280;13829;48.990;8.346;2023-02-25T05:04:48;99585.75;;;6.81;64.32
26112;BME280;13829;48.990;8.346;2023-02-25T05:07:18;99597.94;;;6.81;64.46
26112;BME280;13829;48.990;8.346;2023-02-25T05:09:47;99597.06;;;6.79;63.80
26112;BME280;13829;48.990;8.346;2023-02-25T05:12:16;99605.78;;;6.81;63.75
26112;BME280;13829;48.990;8.346;2023-02-25T05:14:44;99596.28;;;6.94;64.01
26112;BME280;13829;48.990;8.346;2023-02-25T05:17:13;99604.09;;;6.86;62.59
26112;BME280;13829;48.990;8.346;2023-02-25T05:19:40;99598.88;;;6.89;63.60
26112;BME280;13829;48.990;8.346;2023-02-25T05:22:08;99590.84;;;6.61;63.48
26112;BME280;13829;48.990;8.346;2023-02-25T05:24:37;99594.41;;;6.73;63.06
26112;BME280;13829;48.990;8.346;2023-02-25T05:27:07;99595.44;;;6.93;62.72
26112;BME280;13829;48.990;8.346;2023-02-25T05:29:34;99597.91;;;6.75;62.37
26112;BME280;13829;48.990;8.346;2023-02-25T05:32:03;99602.22;;;6.66;62.18
26112;BME280;13829;48.990;8.346;2023-02-25T05:34:32;99600.44;;;6.65;62.36
26112;BME280;13829;48.990;8.346;2023-02-25T05:37:01;99597.91;;;6.76;62.71
26112;BME280;13829;48.990;8.346;2023-02-25T05:39:28;99602.22;;;6.69;62.18
26112;BME280;13829;48.990;8.346;2023-02-25T05:41:55;99602.16;;;6.60;61.22
26112;BME280;13829;48.990;8.346;2023-02-25T05:44:24;99594.38;;;6.66;61.90
26112;BME280;13829;48.990;8.346;2023-02-25T05:46:50;99593.47;;;6.63;62.04
26112;BME280;13829;48.990;8.346;2023-02-25T05:49:19;99588.25;;;6.67;62.07
26112;BME280;13829;48.990;8.346;2023-02-25T05:51:48;99584.78;;;6.67;62.44
26112;BME280;13829;48.990;8.346;2023-02-25T05:54:15;99590.81;;;6.60;62.53
26112;BME280;13829;48.990;8.346;2023-02-25T05:56:44;99586.59;;;6.77;61.63
26112;BME280;13829;48.990;8.346;2023-02-25T05:59:12;99583.31;;;7.05;61.14
26112;BME280;13829;48.990;8.346;2023-02-25T06:01:50;99587.50;;;6.79;61.63
26112;BME280;13829;48.990;8.346;2023-02-25T06:04:18;99598.69;;;6.61;62.08
26112;BME280;13829;48.990;8.346;2023-02-25T06:06:47;99605.56;;;6.56;62.16
26112;BME280;13829;48.990;8.346;2023-02-25T06:09:15;99611.81;;;6.72;61.11
26112;BME280;13829;48.990;8.346;2023-02-25T06:11:50;99622.22;;;6.67;61.06
26112;BME280;13829;48.990;8.346;2023-02-25T06:14:17;99619.66;;;6.74;61.64
26112;BME280;13829;48.990;8.346;2023-02-25T06:16:45;99623.13;;;6.69;61.45
26112;BME280;13829;48.990;8.346;2023-02-25T06:19:14;99630.06;;;6.67;61.04
26112;BME280;13829;48.990;8.346;2023-02-25T06:21:43;99640.38;;;6.52;62.54
26112;BME280;13829;48.990;8.346;2023-02-25T06:24:10;99625.72;;;6.69;62.58
26112;BME280;13829;48.990;8.346;2023-02-25T06:26:38;99632.72;;;6.69;62.26
26112;BME280;13829;48.990;8.346;2023-02-25T06:29:11;99638.69;;;6.57;62.36
26112;BME280;13829;48.990;8.346;2023-02-25T06:31:38;99629.88;;;6.46;63.17
26112;BME280;13829;48.990;8.346;2023-02-25T06:34:06;99624.66;;;6.46;62.98
26112;BME280;13829;48.990;8.346;2023-02-25T06:36:35;99632.59;;;6.57;62.49
26112;BME280;13829;48.990;8.346;2023-02-25T06:39:03;99632.59;;;6.57;62.40
26112;BME280;13829;48.990;8.346;2023-02-25T06:41:30;99631.75;;;6.61;61.88
26112;BME280;13829;48.990;8.346;2023-02-25T06:43:57;99646.56;;;6.60;62.05
26112;BME280;13829;48.990;8.346;2023-02-25T06:46:25;99640.56;;;6.74;62.77
26112;BME280;13829;48.990;8.346;2023-02-25T06:48:58;99637.19;;;6.87;63.39
26112;BME280;13829;48.990;8.346;2023-02-25T06:51:25;99640.50;;;6.67;62.22
26112;BME280;13829;48.990;8.346;2023-02-25T06:53:52;99657.00;;;6.59;62.75
26112;BME280;13829;48.990;8.346;2023-02-25T06:56:21;99652.81;;;6.81;62.35
26112;BME280;13829;48.990;8.346;2023-02-25T06:58:48;99655.38;;;6.75;62.68
26112;BME280;13829;48.990;8.346;2023-02-25T07:01:17;99660.66;;;6.79;62.04
26112;BME280;13829;48.990;8.346;2023-02-25T07:03:44;99667.72;;;6.88;62.37
26112;BME280;13829;48.990;8.346;2023-02-25T07:06:14;99666.81;;;6.86;62.94
26112;BME280;13829;48.990;8.346;2023-02-25T07:08:43;99661.63;;;6.89;61.39
26112;BME280;13829;48.990;8.346;2023-02-25T07:11:13;99666.91;;;7.01;60.86
26112;BME280;13829;48.990;8.346;2023-02-25T07:13:43;99662.59;;;7.02;61.04
26112;BME280;13829;48.990;8.346;2023-02-25T07:16:10;99665.22;;;7.04;60.96
26112;BME280;13829;48.990;8.346;2023-02-25T07:18:38;99663.44;;;6.99;61.42
26112;BME280;13829;48.990;8.346;2023-02-25T07:21:05;99667.81;;;7.04;61.74
26112;BME280;13829;48.990;8.346;2023-02-25T07:23:34;99666.13;;;7.09;61.05
26112;BME280;13829;48.990;8.346;2023-02-25T07:26:04;99671.44;;;7.20;60.50
26112;BME280;13829;48.990;8.346;2023-02-25T07:28:31;99670.59;;;7.27;60.50
26112;BME280;13829;48.990;8.346;2023-02-25T07:31:01;99668.81;;;7.24;59.11
26112;BME280;13829;48.990;8.346;2023-02-25T07:33:29;99664.59;;;7.42;58.27
26112;BME280;13829;48.990;8.346;2023-02-25T07:35:56;99661.97;;;7.42;58.76
26112;BME280;13829;48.990;8.346;2023-02-25T07:38:23;99667.25;;;7.51;59.35
26112;BME280;13829;48.990;8.346;2023-02-25T07:40:50;99660.25;;;7.47;58.48
26112;BME280;13829;48.990;8.346;2023-02-25T07:43:17;99665.44;;;7.42;57.84
26112;BME280;13829;48.990;8.346;2023-02-25T07:45:44;99667.28;;;7.54;56.75
26112;BME280;13829;48.990;8.346;2023-02-25T07:48:12;99673.41;;;7.59;58.60
26112;BME280;13829;48.990;8.346;2023-02-25T07:50:39;99673.38;;;7.53;56.85
26112;BME280;13829;48.990;8.346;2023-02-25T07:53:06;99665.56;;;7.59;56.63
26112;BME280;13829;48.990;8.346;2023-02-25T07:55:33;99667.28;;;7.53;57.52
26112;BME280;13829;48.990;8.346;2023-02-25T07:58:00;99670.81;;;7.64;57.30
26112;BME280;13829;48.990;8.346;2023-02-25T08:00:27;99670.81;;;7.70;56.38
26112;BME280;13829;48.990;8.346;2023-02-25T08:02:54;99672.66;;;7.82;54.12
26112;BME280;13829;48.990;8.346;2023-02-25T08:05:22;99666.44;;;7.66;54.18
26112;BME280;13829;48.990;8.346;2023-02-25T08:07:49;99662.97;;;7.64;53.79
26112;BME280;13829;48.990;8.346;2023-02-25T08:10:17;99669.06;;;7.61;54.16
26112;BME280;13829;48.990;8.346;2023-02-25T08:12:44;99660.34;;;7.65;54.04
26112;BME280;13829;48.990;8.346;2023-02-25T08:15:13;99671.69;;;7.61;53.76
26112;BME280;13829;48.990;8.346;2023-02-25T08:17:39;99667.34;;;7.66;54.04
26112;BME280;13829;48.990;8.346;2023-02-25T08:20:08;99677.81;;;7.70;54.99
26112;BME280;13829;48.990;8.346;2023-02-25T08:22:38;99681.34;;;7.81;54.55
26112;BME280;13829;48.990;8.346;2023-02-25T08:25:05;99672.66;;;7.80;54.49
26112;BME280;13829;48.990;8.346;2023-02-25T08:27:36;99676.19;;;7.93;54.24
26112;BME280;13829;48.990;8.346;2023-02-25T08:30:06;99678.78;;;7.98;53.79
26112;BME280;13829;48.990;8.346;2023-02-25T08:32:36;99683.16;;;7.97;54.52
26112;BME280;13829;48.990;8.346;2023-02-25T08:35:05;99677.13;;;8.23;55.24
26112;BME280;13829;48.990;8.346;2023-02-25T08:37:32;99676.28;;;8.27;54.36
26112;BME280;13829;48.990;8.346;2023-02-25T08:40:03;99678.06;;;8.28;55.67
26112;BME280;13829;48.990;8.346;2023-02-25T08:42:35;99673.63;;;8.18;55.70
26112;BME280;13829;48.990;8.346;2023-02-25T08:45:05;99674.50;;;8.14;55.78
26112;BME280;13829;48.990;8.346;2023-02-25T08:47:32;99675.38;;;8.13;56.78
26112;BME280;13829;48.990;8.346;2023-02-25T08:50:00;99671.94;;;8.31;57.25
26112;BME280;13829;48.990;8.346;2023-02-25T08:52:29;99675.44;;;8.45;56.81
26112;BME280;13829;48.990;8.346;2023-02-25T08:55:01;99678.13;;;8.53;56.80
26112;BME280;13829;48.990;8.346;2023-02-25T08:57:29;99668.47;;;8.41;56.72
26112;BME280;13829;48.990;8.346;2023-02-25T08:59:56;99670.25;;;8.52;57.51
26112;BME280;13829;48.990;8.346;2023-02-25T09:02:27;99671.13;;;8.57;58.38
26112;BME280;13829;48.990;8.346;2023-02-25T09:05:00;99679.84;;;8.51;57.02
26112;BME280;13829;48.990;8.346;2023-02-25T09:07:29;99671.09;;;8.43;57.62
26112;BME280;13829;48.990;8.346;2023-02-25T09:09:56;99671.16;;;8.64;57.84
26112;BME280;13829;48.990;8.346;2023-02-25T09:12:24;99660.66;;;8.55;58.63
26112;BME280;13829;48.990;8.346;2023-02-25T09:14:51;99657.16;;;8.55;57.39
26112;BME280;13829;48.990;8.346;2023-02-25T09:17:20;99658.06;;;8.77;56.14
26112;BME280;13829;48.990;8.346;2023-02-25T09:19:47;99652.78;;;8.80;56.35
26112;BME280;13829;48.990;8.346;2023-02-25T09:22:14;99646.69;;;8.79;56.90
26112;BME280;13829;48.990;8.346;2023-02-25T09:24:41;99647.56;;;8.77;56.82
26112;BME280;13829;48.990;8.346;2023-02-25T09:27:09;99643.19;;;8.71;55.89
26112;BME280;13829;48.990;8.346;2023-02-25T09:29:38;99644.94;;;8.61;56.15
26112;BME280;13829;48.990;8.346;2023-02-25T09:32:07;99646.69;;;8.81;57.14
26112;BME280;13829;48.990;8.346;2023-02-25T09:34:34;99640.59;;;8.87;56.85
26112;BME280;13829;48.990;8.346;2023-02-25T09:37:05;99645.81;;;8.82;55.62
26112;BME280;13829;48.990;8.346;2023-02-25T09:39:34;99637.94;;;8.88;55.57
26112;BME280;13829;48.990;8.346;2023-02-25T09:42:08;99638.81;;;8.95;55.61
26112;BME280;13829;48.990;8.346;2023-02-25T09:44:42;99634.44;;;8.95;55.44
26112;BME280;13829;48.990;8.346;2023-02-25T09:47:20;99639.69;;;8.98;55.98
26112;BME280;13829;48.990;8.346;2023-02-25T09:49:54;99644.94;;;8.80;55.57
26112;BME280;13829;48.990;8.346;2023-02-25T09:52:28;99642.31;;;8.89;57.43
26112;BME280;13829;48.990;8.346;2023-02-25T09:55:05;99644.06;;;9.06;56.74
26112;BME280;13829;48.990;8.346;2023-02-25T09:57:38;99643.16;;;9.16;54.07
26112;BME280;13829;48.990;8.346;2023-02-25T10:00:17;99632.66;;;9.19;55.68
26112;BME280;13829;48.990;8.346;2023-02-25T10:02:53;99638.78;;;9.27;55.78
26112;BME280;13829;48.990;8.346;2023-02-25T10:05:27;99636.97;;;9.42;55.89
26112;BME280;13829;48.990;8.346;2023-02-25T10:08:11;99636.09;;;9.55;54.72
26112;BME280;13829;48.990;8.346;2023-02-25T10:10:51;99629.13;;;9.36;54.12
26112;BME280;13829;48.990;8.346;2023-02-25T10:13:34;99641.34;;;9.46;53.31
26112;BME280;13829;48.990;8.346;2023-02-25T10:16:23;99645.66;;;9.66;54.86
26112;BME280;13829;48.990;8.346;2023-02-25T10:19:08;99645.69;;;9.58;52.26
26112;BME280;13829;48.990;8.346;2023-02-25T10:21:58;99639.59;;;9.48;52.91
26112;BME280;13829;48.990;8.346;2023-02-25T10:24:39;99637.91;;;9.07;50.01
26112;BME280;13829;48.990;8.346;2023-02-25T10:27:20;99638.81;;;8.67;50.84
26112;BME280;13829;48.990;8.346;2023-02-25T10:29:51;99642.22;;;8.32;51.04
26112;BME280;13829;48.990;8.346;2023-02-25T10:32:26;99643.09;;;8.17;52.10
26112;BME280;13829;48.990;8.346;2023-02-25T10:34:59;99637.00;;;8.27;52.77
26112;BME280;13829;48.990;8.346;2023-02-25T10:37:34;99630.91;;;8.44;51.76
26112;BME280;13829;48.990;8.346;2023-02-25T10:40:06;99632.69;;;8.48;51.44
26112;BME280;13829;48.990;8.346;2023-02-25T10:42:36;99616.97;;;8.49;51.23
26112;BME280;13829;48.990;8.346;2023-02-25T10:45:08;99624.84;;;8.56;52.75
26112;BME280;13829;48.990;8.346;2023-02-25T10:47:40;99622.19;;;8.45;51.98
26112;BME280;13829;48.990;8.346;2023-02-25T10:50:19;99624.84;;;8.46;51.70
26112;BME280;13829;48.990;8.346;2023-02-25T10:53:00;99622.22;;;8.54;52.42
26112;BME280;13829;48.990;8.346;2023-02-25T10:55:39;99621.28;;;8.35;52.21
26112;BME280;13829;48.990;8.346;2023-02-25T10:58:31;99634.38;;;8.40;52.94
26112;BME280;13829;48.990;8.346;2023-02-25T11:01:08;99637.91;;;8.51;53.78
26112;BME280;13829;48.990;8.346;2023-02-25T11:03:45;99635.31;;;8.56;51.92
26112;BME280;13829;48.990;8.346;2023-02-25T11:06:22;99623.97;;;8.64;50.85
26112;BME280;13829;48.990;8.346;2023-02-25T11:08:57;99635.31;;;8.65;51.74
26112;BME280;13829;48.990;8.346;2023-02-25T11:11:26;99632.69;;;8.79;51.98
26112;BME280;13829;48.990;8.346;2023-02-25T11:14:03;99627.47;;;8.76;50.65
26112;BME280;13829;48.990;8.346;2023-02-25T11:16:34;99631.81;;;8.52;51.06
26112;BME280;13829;48.990;8.346;2023-02-25T11:19:14;99623.97;;;8.66;51.02
26112;BME280;13829;48.990;8.346;2023-02-25T11:21:45;99616.09;;;8.71;51.71
26112;BME280;13829;48.990;8.346;2023-02-25T11:24:31;99619.59;;;8.68;50.64
26112;BME280;13829;48.990;8.346;2023-02-25T11:27:07;99616.97;;;8.76;50.06
26112;BME280;13829;48.990;8.346;2023-02-25T11:29:49;99627.44;;;8.71;50.48
26112;BME280;13829;48.990;8.346;2023-02-25T11:32:19;99616.97;;;8.91;52.01
26112;BME280;13829;48.990;8.346;2023-02-25T11:34:54;99627.44;;;8.79;49.92
26112;BME280;13829;48.990;8.346;2023-02-25T11:37:24;99640.56;;;8.60;50.54
26112;BME280;13829;48.990;8.346;2023-02-25T11:39:55;99645.78;;;8.65;52.45
26112;BME280;13829;48.990;8.346;2023-02-25T11:42:26;99637.94;;;8.48;50.88
26112;BME280;13829;48.990;8.346;2023-02-25T11:44:58;99641.34;;;8.19;51.69
26112;BME280;13829;48.990;8.346;2023-02-25T11:47:32;99632.59;;;8.14;51.98
26112;BME280;13829;48.990;8.346;2023-02-25T11:50:22;99631.69;;;8.12;54.36
26112;BME280;13829;48.990;8.346;2023-02-25T11:53:03;99632.44;;;7.67;56.49
26112;BME280;13829;48.990;8.346;2023-02-25T11:55:53;99641.09;;;7.57;56.63
26112;BME280;13829;48.990;8.346;2023-02-25T11:58:36;99648.06;;;7.52;56.99
26112;BME280;13829;48.990;8.346;2023-02-25T12:01:22;99645.41;;;7.46;56.83
26112;BME280;13829;48.990;8.346;2023-02-25T12:04:15;99637.66;;;7.61;57.16
26112;BME280;13829;48.990;8.346;2023-02-25T12:10:40;99635.16;;;7.94;58.70
26112;BME280;13829;48.990;8.346;2023-02-25T12:14:03;99635.19;;;8.02;57.18
26112;BME280;13829;48.990;8.346;2023-02-25T12:17:15;99638.69;;;8.04;58.07
26112;BME280;13829;48.990;8.346;2023-02-25T12:20:24;99636.13;;;8.31;58.03
26112;BME280;13829;48.990;8.346;2023-02-25T12:26:35;99638.81;;;8.47;55.36
26112;BME280;13829;48.990;8.346;2023-02-25T12:29:40;99633.56;;;8.56;55.51
26112;BME280;13829;48.990;8.346;2023-02-25T12:32:33;99626.56;;;8.66;54.01
26112;BME280;13829;48.990;8.346;2023-02-25T12:35:54;99629.19;;;8.74;53.33
26112;BME280;13829;48.990;8.346;2023-02-25T12:39:06;99630.09;;;8.82;53.87
26112;BME280;13829;48.990;8.346;2023-02-25T12:41:39;99624.84;;;8.63;53.50
26112;BME280;13829;48.990;8.346;2023-02-25T12:47:58;99628.34;;;8.58;53.65
26112;BME280;13829;48.990;8.346;2023-02-25T12:50:54;99629.22;;;8.77;52.27
26112;BME280;13829;48.990;8.346;2023-02-25T12:53:42;99615.22;;;8.86;55.38
26112;BME280;13829;48.990;8.346;2023-02-25T12:57:02;99618.72;;;8.61;53.14
26112;BME280;13829;48.990;8.346;2023-02-25T13:00:04;99612.59;;;8.62;54.03
26112;BME280;13829;48.990;8.346;2023-02-25T13:09:53;99601.22;;;8.79;51.90
26112;BME280;13829;48.990;8.346;2023-02-25T13:12:57;99602.09;;;8.76;52.26
26112;BME280;13829;48.990;8.346;2023-02-25T13:15:35;99597.72;;;8.92;52.02
26112;BME280;13829;48.990;8.346;2023-02-25T13:18:18;99591.59;;;8.84;51.02
26112;BME280;13829;48.990;8.346;2023-02-25T13:21:20;99581.97;;;9.05;52.29
26112;BME280;13829;48.990;8.346;2023-02-25T13:24:18;99581.94;;;9.20;52.41
26112;BME280;13829;48.990;8.346;2023-02-25T13:27:18;99588.00;;;9.38;49.85
26112;BME280;13829;48.990;8.346;2023-02-25T13:30:04;99578.41;;;9.30;50.97
26112;BME280;13829;48.990;8.346;2023-02-25T13:32:42;99588.91;;;9.24;52.62
26112;BME280;13829;48.990;8.346;2023-02-25T13:35:27;99586.31;;;9.12;50.25
26112;BME280;13829;48.990;8.346;2023-02-25T13:38:18;99575.00;;;8.94;50.92
26112;BME280;13829;48.990;8.346;2023-02-25T13:41:10;99584.56;;;9.14;50.77
26112;BME280;13829;48.990;8.346;2023-02-25T13:47:09;99583.59;;;9.46;50.34
26112;BME280;13829;48.990;8.346;2023-02-25T13:50:17;99573.03;;;9.66;50.98
26112;BME280;13829;48.990;8.346;2023-02-25T13:53:14;99578.22;;;9.78;50.24
26112;BME280;13829;48.990;8.346;2023-02-25T13:56:09;99574.72;;;9.75;49.32
26112;BME280;13829;48.990;8.346;2023-02-25T13:59:00;99584.41;;;9.67;49.65
26112;BME280;13829;48.990;8.346;2023-02-25T14:01:46;99576.59;;;9.53;49.15
26112;BME280;13829;48.990;8.346;2023-02-25T14:04:42;99569.72;;;9.13;49.27
26112;BME280;13829;48.990;8.346;2023-02-25T14:07:49;99573.25;;;9.06;49.62
26112;BME280;13829;48.990;8.346;2023-02-25T14:10:41;99578.47;;;9.10;49.75
26112;BME280;13829;48.990;8.346;2023-02-25T14:17:14;99572.25;;;9.45;48.93